Archival Weather

Chicago O'Hare International

Chicago, Illinois (KORD)

Report from: Saturday, March 31, 2012 3:51 AM CDT
Current time: Monday, June 17, 2024 4:48 AM CDT

Current weather – Weather history – Daily summaries
Weather forecast

Temperature4.4°C (39.9°F)
Wind chill0.5°C (32.9°F)
Dew point1.1°C (34.0°F)
Winds 10 kts (5.1 m/s, 11.5 mph) East-Northeast (60°)
Visibility10 mi. (16.1 km)
Clouds Ceiling: Overcast 800 ft. (244 m)
Altimeter29.96 in.Hg (1015 mB)
Relative humidity79 %
Density altitude-1,240 ft. (-378 m)
Sea-level pressure101.5 kPa (1015 mB, 29.97 in.Hg)
Remarks System requires maintenance
Automated weather observing station with precipitation discriminator
Pressure rising more quickly
Flight conditions Instrument Meteorological Conditions
Raw data2012-03-31 08:51 KORD 310851Z 06010KT 10SM OVC008 04/01 A2996 RMK AO2 SLP149 T00440011 53003 $
An error has occurred. This application may no longer respond until reloaded. Reload 🗙